createdAt,value
2019-01-25T00:01:09.863Z,107.03
2019-01-25T00:03:39.750Z,144.60
2019-01-25T00:06:09.530Z,135.73
2019-01-25T00:08:59.290Z,129.83
2019-01-25T00:11:28.671Z,126.60
2019-01-25T00:13:57.940Z,141.50
2019-01-25T00:16:27.562Z,138.97
2019-01-25T00:18:56.907Z,135.03
2019-01-25T00:21:27.069Z,132.00
2019-01-25T00:23:56.464Z,142.23
2019-01-25T00:26:25.838Z,150.90
2019-01-25T00:28:55.102Z,154.67
2019-01-25T00:31:25.289Z,155.93
2019-01-25T00:33:54.911Z,142.33
2019-01-25T00:36:24.563Z,136.00
2019-01-25T00:38:54.216Z,139.47
2019-01-25T00:41:23.539Z,131.60
2019-01-25T00:43:52.820Z,131.93
2019-01-25T00:46:22.249Z,132.70
2019-01-25T00:48:51.605Z,135.83
2019-01-25T00:51:20.979Z,150.47
2019-01-25T00:53:50.336Z,151.53
2019-01-25T00:56:19.687Z,153.77
2019-01-25T00:58:48.966Z,150.53
2019-01-25T01:01:18.342Z,150.37
2019-01-25T01:03:47.659Z,165.27
2019-01-25T01:06:16.946Z,167.10
2019-01-25T01:08:46.263Z,172.53
2019-01-25T01:11:15.566Z,171.97
2019-01-25T01:13:44.913Z,179.00
2019-01-25T01:16:14.300Z,176.93
2019-01-25T01:18:44.029Z,154.20
2019-01-25T01:21:13.644Z,180.10
2019-01-25T01:23:42.950Z,156.93
2019-01-25T01:26:12.544Z,174.87
2019-01-25T01:28:42.155Z,185.70
2019-01-25T01:31:11.832Z,178.27
2019-01-25T01:33:41.646Z,188.50
2019-01-25T01:36:10.936Z,173.20
2019-01-25T01:38:40.253Z,170.73
2019-01-25T01:41:09.955Z,170.83
2019-01-25T01:43:39.237Z,175.17
2019-01-25T01:46:08.896Z,173.07
2019-01-25T01:48:38.267Z,160.53
2019-01-25T01:51:08.034Z,165.77
2019-01-25T01:53:37.317Z,183.50
2019-01-25T01:56:06.718Z,160.93
2019-01-25T01:58:36.009Z,155.73
2019-01-25T02:01:05.794Z,163.93
2019-01-25T02:03:35.092Z,172.83
2019-01-25T02:06:04.593Z,161.57
2019-01-25T02:08:33.885Z,163.17
2019-01-25T02:11:03.521Z,183.77
2019-01-25T02:13:33.221Z,176.70
2019-01-25T02:16:02.563Z,184.37
2019-01-25T02:18:31.923Z,190.47
2019-01-25T02:21:02.466Z,189.00
2019-01-25T02:23:31.819Z,180.00
2019-01-25T02:26:01.549Z,182.10
2019-01-25T02:28:31.163Z,186.00
2019-01-25T02:31:00.440Z,184.37
2019-01-25T02:33:29.709Z,169.90
2019-01-25T02:35:59.011Z,187.23
2019-01-25T02:38:28.298Z,193.10
2019-01-25T02:40:57.906Z,182.20
2019-01-25T02:43:27.201Z,193.67
2019-01-25T02:45:56.503Z,196.20
2019-01-25T02:48:26.212Z,201.90
2019-01-25T02:50:55.528Z,180.13
2019-01-25T02:53:24.913Z,192.47
2019-01-25T02:55:54.215Z,206.93
2019-01-25T02:58:23.479Z,221.20
2019-01-25T03:00:52.783Z,227.23
2019-01-25T03:03:22.064Z,240.93
2019-01-25T03:05:51.986Z,230.77
2019-01-25T03:08:21.254Z,241.60
2019-01-25T03:10:50.657Z,260.60
2019-01-25T03:13:19.944Z,286.53
2019-01-25T03:15:49.233Z,217.87
2019-01-25T03:18:18.502Z,242.00
2019-01-25T03:20:47.800Z,246.40
2019-01-25T03:23:17.070Z,237.07
2019-01-25T03:25:46.708Z,257.20
2019-01-25T03:28:15.982Z,235.50
2019-01-25T03:30:45.558Z,202.13
2019-01-25T03:33:14.866Z,240.10
2019-01-25T03:35:44.490Z,245.70
2019-01-25T03:38:14.076Z,234.83
2019-01-25T03:40:43.369Z,222.83
2019-01-25T03:43:12.656Z,273.77
2019-01-25T03:45:41.973Z,227.80
2019-01-25T03:48:11.245Z,290.47
2019-01-25T03:50:40.543Z,330.77
2019-01-25T03:53:09.891Z,358.27
2019-01-25T03:55:39.227Z,278.40
2019-01-25T03:58:08.595Z,284.77
2019-01-25T04:00:38.188Z,289.97
2019-01-25T04:03:07.701Z,323.37
2019-01-25T04:05:36.975Z,351.93
2019-01-25T04:08:06.435Z,296.30
2019-01-25T04:10:35.998Z,319.03
2019-01-25T04:13:05.596Z,355.67
2019-01-25T04:15:35.733Z,287.83
2019-01-25T04:18:06.060Z,301.03
2019-01-25T04:20:35.375Z,270.23
2019-01-25T04:23:05.024Z,310.47
2019-01-25T04:26:10.795Z,297.60
2019-01-25T04:28:40.581Z,301.40
2019-01-25T04:31:09.852Z,337.83
2019-01-25T04:33:39.145Z,326.87
2019-01-25T04:36:44.872Z,343.63
2019-01-25T04:39:14.134Z,339.40
2019-01-25T04:41:43.794Z,329.30
2019-01-25T04:44:14.542Z,381.73
2019-01-25T04:47:21.379Z,287.23
2019-01-25T04:49:53.788Z,325.77
2019-01-25T04:52:23.465Z,387.70
2019-01-25T04:54:52.795Z,236.93
2019-01-25T04:57:22.187Z,326.00
2019-01-25T04:59:51.475Z,213.50
2019-01-25T05:02:20.732Z,283.23
2019-01-25T05:04:49.939Z,282.27
2019-01-25T05:07:19.100Z,263.43
2019-01-25T05:10:24.367Z,206.23
2019-01-25T05:12:54.040Z,285.70
2019-01-25T05:15:59.335Z,226.60
2019-01-25T05:18:28.650Z,244.17
2019-01-25T05:20:57.778Z,268.70
2019-01-25T05:23:26.936Z,222.17
2019-01-25T05:25:56.387Z,246.80
2019-01-25T05:28:34.089Z,307.20
2019-01-25T05:31:06.019Z,251.73
2019-01-25T05:33:35.180Z,218.90
2019-01-25T05:36:04.889Z,213.93
2019-01-25T05:38:34.396Z,206.30
2019-01-25T05:41:04.783Z,209.13
2019-01-25T05:43:41.710Z,225.60
2019-01-25T05:46:10.962Z,219.10
2019-01-25T05:48:40.564Z,205.07
2019-01-25T05:51:09.793Z,250.90
2019-01-25T05:53:39.264Z,234.43
2019-01-25T05:56:08.852Z,221.60
2019-01-25T05:58:38.008Z,199.37
2019-01-25T06:01:07.349Z,263.20
2019-01-25T06:03:36.528Z,219.57
2019-01-25T06:06:09.182Z,252.27
2019-01-25T06:08:43.899Z,221.00
2019-01-25T06:11:12.893Z,238.63
2019-01-25T06:13:43.317Z,229.17
2019-01-25T06:16:12.731Z,202.40
2019-01-25T06:18:42.287Z,224.73
2019-01-25T06:21:11.773Z,244.77
2019-01-25T06:23:41.371Z,194.93
2019-01-25T06:26:12.253Z,245.00
2019-01-25T06:28:41.385Z,228.10
2019-01-25T06:31:10.576Z,212.53
2019-01-25T06:33:39.783Z,195.77
2019-01-25T06:36:09.391Z,210.63
2019-01-25T06:38:38.570Z,251.43
2019-01-25T06:41:08.686Z,231.37
2019-01-25T06:43:37.936Z,195.70
2019-01-25T06:46:07.388Z,194.47
2019-01-25T06:48:36.529Z,231.97
2019-01-25T06:51:06.378Z,260.13
2019-01-25T06:53:36.712Z,212.93
2019-01-25T06:56:06.000Z,257.77
2019-01-25T06:58:46.847Z,302.33
2019-01-25T07:01:41.415Z,239.67
2019-01-25T07:04:10.692Z,251.03
2019-01-25T07:06:39.840Z,311.80
2019-01-25T07:09:11.325Z,303.43
2019-01-25T07:11:42.173Z,250.47
2019-01-25T07:14:11.403Z,287.97
2019-01-25T07:16:40.664Z,246.63
2019-01-25T07:19:09.800Z,242.40
2019-01-25T07:21:39.030Z,274.57
2019-01-25T07:24:08.197Z,241.10
2019-01-25T07:26:37.898Z,279.63
2019-01-25T07:29:07.470Z,255.70
2019-01-25T07:31:37.068Z,281.80
2019-01-25T07:34:06.605Z,263.27
2019-01-25T07:36:36.625Z,282.30
2019-01-25T07:39:19.427Z,299.83
2019-01-25T07:41:48.712Z,322.53
2019-01-25T07:44:18.387Z,315.13
2019-01-25T07:46:48.145Z,302.53
2019-01-25T07:49:17.290Z,326.83
2019-01-25T07:51:46.469Z,321.73
2019-01-25T07:54:15.698Z,339.10
2019-01-25T07:56:44.941Z,320.43
2019-01-25T07:59:14.486Z,331.57
2019-01-25T08:01:44.315Z,369.47
2019-01-25T08:04:13.521Z,368.17
2019-01-25T08:06:42.797Z,341.87
2019-01-25T08:09:12.029Z,339.57
2019-01-25T08:11:41.279Z,369.67
2019-01-25T08:14:12.778Z,346.80
2019-01-25T08:16:41.912Z,367.53
2019-01-25T08:19:11.161Z,360.43
2019-01-25T08:21:40.352Z,343.67
2019-01-25T08:24:09.663Z,345.77
2019-01-25T08:26:39.276Z,365.07
2019-01-25T08:29:08.789Z,383.77
2019-01-25T08:31:38.074Z,382.40
2019-01-25T08:34:07.692Z,409.03
2019-01-25T08:36:36.928Z,392.73
2019-01-25T08:39:09.219Z,389.07
2019-01-25T08:41:38.402Z,367.63
2019-01-25T08:44:08.020Z,377.13
2019-01-25T08:46:37.667Z,399.30
2019-01-25T08:49:06.887Z,413.20
2019-01-25T08:51:36.446Z,358.83
2019-01-25T08:54:05.829Z,381.77
2019-01-25T08:56:35.138Z,380.07
2019-01-25T08:59:04.706Z,397.97
2019-01-25T09:01:33.907Z,362.10
2019-01-25T09:04:03.146Z,384.60
2019-01-25T09:06:32.665Z,405.10
2019-01-25T09:09:01.830Z,377.93
2019-01-25T09:11:31.086Z,373.97
2019-01-25T09:14:00.267Z,341.60
2019-01-25T09:16:29.804Z,337.70
2019-01-25T09:18:58.996Z,312.57
2019-01-25T09:21:28.534Z,296.33
2019-01-25T09:23:57.691Z,294.40
2019-01-25T09:26:27.297Z,314.20
2019-01-25T09:28:56.917Z,311.00
2019-01-25T09:31:26.532Z,294.43
2019-01-25T09:33:55.707Z,298.47
2019-01-25T09:36:25.447Z,305.47
2019-01-25T09:38:54.658Z,319.83
2019-01-25T09:41:23.826Z,322.60
2019-01-25T09:43:53.376Z,330.13
2019-01-25T09:46:22.892Z,310.73
2019-01-25T09:48:52.082Z,316.47
2019-01-25T09:51:21.360Z,301.37
2019-01-25T09:53:52.368Z,284.33
2019-01-25T09:56:21.776Z,302.40
2019-01-25T09:58:51.249Z,309.00
2019-01-25T10:01:20.723Z,297.13
2019-01-25T10:03:49.907Z,294.47
2019-01-25T10:06:19.090Z,298.43
2019-01-25T10:08:48.325Z,308.03
2019-01-25T10:11:17.578Z,285.30
2019-01-25T10:13:47.122Z,272.03
2019-01-25T10:16:16.648Z,270.20
2019-01-25T10:18:45.883Z,267.97
2019-01-25T10:21:15.041Z,258.47
2019-01-25T10:23:44.245Z,240.63
2019-01-25T10:26:13.484Z,238.90
2019-01-25T10:28:42.776Z,221.00
2019-01-25T10:31:11.934Z,206.80
2019-01-25T10:33:41.510Z,203.00
2019-01-25T10:36:11.023Z,196.13
2019-01-25T10:38:40.276Z,192.20
2019-01-25T10:41:10.223Z,173.27
2019-01-25T10:43:39.368Z,179.20
2019-01-25T10:46:08.619Z,160.23
2019-01-25T10:48:37.805Z,156.63
2019-01-25T10:51:07.045Z,155.40
2019-01-25T10:53:36.235Z,156.27
2019-01-25T10:56:05.594Z,165.03
2019-01-25T10:58:34.817Z,155.00
2019-01-25T11:01:04.294Z,142.40
2019-01-25T11:03:33.561Z,153.63
2019-01-25T11:06:03.260Z,137.53
2019-01-25T11:08:38.035Z,155.10
2019-01-25T11:11:07.258Z,143.00
2019-01-25T11:13:36.511Z,140.33
2019-01-25T11:16:06.493Z,134.37
2019-01-25T11:18:35.703Z,133.07
2019-01-25T11:21:05.073Z,131.80
2019-01-25T11:23:34.233Z,123.07
2019-01-25T11:26:03.741Z,117.00
2019-01-25T11:28:33.249Z,104.63
2019-01-25T11:31:02.487Z,97.73
2019-01-25T11:33:31.667Z,103.90
2019-01-25T11:36:01.796Z,87.10
2019-01-25T11:38:31.136Z,90.00
2019-01-25T11:41:00.315Z,93.67
2019-01-25T11:43:29.490Z,92.17
2019-01-25T11:45:58.668Z,93.47
2019-01-25T11:48:28.142Z,93.83
2019-01-25T11:50:57.983Z,93.40
2019-01-25T11:53:27.209Z,91.37
2019-01-25T11:55:56.397Z,87.10
2019-01-25T11:58:25.629Z,92.57
2019-01-25T12:00:55.339Z,85.67
2019-01-25T12:03:24.483Z,95.00
2019-01-25T12:05:53.952Z,91.03
2019-01-25T12:08:23.469Z,90.43
2019-01-25T12:10:52.669Z,82.37
2019-01-25T12:13:21.825Z,93.47
2019-01-25T12:15:51.458Z,88.97
2019-01-25T12:18:21.140Z,90.23
2019-01-25T12:20:50.433Z,91.00
2019-01-25T12:23:19.643Z,84.43
2019-01-25T12:25:48.884Z,85.83
2019-01-25T12:28:18.686Z,85.83
2019-01-25T12:30:47.840Z,93.77
2019-01-25T12:33:17.286Z,78.03
2019-01-25T12:35:46.514Z,85.77
2019-01-25T12:38:15.727Z,85.13
2019-01-25T12:40:45.263Z,87.30
2019-01-25T12:43:14.419Z,85.93
2019-01-25T12:45:43.682Z,92.73
2019-01-25T12:48:13.172Z,89.23
2019-01-25T12:50:49.087Z,98.20
2019-01-25T12:53:16.684Z,103.07
2019-01-25T12:55:46.342Z,94.87
2019-01-25T12:58:15.512Z,106.03
2019-01-25T13:00:45.088Z,116.40
2019-01-25T13:03:14.329Z,111.80
2019-01-25T13:05:43.893Z,110.33
2019-01-25T13:08:13.491Z,106.10
2019-01-25T13:10:42.732Z,105.40
2019-01-25T13:13:12.185Z,105.27
2019-01-25T13:15:41.325Z,106.83
2019-01-25T13:18:10.548Z,109.00
2019-01-25T13:20:39.875Z,107.67
2019-01-25T13:23:09.404Z,104.30
2019-01-25T13:25:38.557Z,104.87
2019-01-25T13:28:07.720Z,104.57
2019-01-25T13:30:36.969Z,97.70
2019-01-25T13:33:06.195Z,113.30
2019-01-25T13:35:35.794Z,117.33
2019-01-25T13:38:05.918Z,117.80
2019-01-25T13:40:35.107Z,122.07
2019-01-25T13:43:04.617Z,114.43
2019-01-25T13:45:34.456Z,122.23
2019-01-25T13:48:03.721Z,108.93
2019-01-25T13:50:32.962Z,118.20
2019-01-25T13:53:02.738Z,115.87
2019-01-25T13:55:32.669Z,123.83
2019-01-25T13:58:01.840Z,117.20
2019-01-25T14:00:33.122Z,122.97
2019-01-25T14:03:02.588Z,128.63
2019-01-25T14:05:32.242Z,117.83
2019-01-25T14:08:01.441Z,122.30
2019-01-25T14:10:32.675Z,113.20
2019-01-25T14:13:02.441Z,111.23
2019-01-25T14:15:31.670Z,116.87
2019-01-25T14:18:00.836Z,113.43
2019-01-25T14:20:31.420Z,114.60
2019-01-25T14:23:00.562Z,105.10
2019-01-25T14:25:30.288Z,106.07
2019-01-25T14:27:59.742Z,111.30
2019-01-25T14:30:34.147Z,99.37
2019-01-25T14:33:03.970Z,106.67
2019-01-25T14:35:33.601Z,96.33
2019-01-25T14:38:03.235Z,107.97
2019-01-25T14:40:32.525Z,106.20
2019-01-25T14:43:01.676Z,108.40
2019-01-25T14:45:31.320Z,108.40
2019-01-25T14:48:00.805Z,109.07
2019-01-25T14:50:30.467Z,116.47
2019-01-25T14:53:00.581Z,113.73
2019-01-25T14:55:30.050Z,110.03
2019-01-25T14:57:59.552Z,104.33
2019-01-25T15:00:28.713Z,106.83
2019-01-25T15:02:57.857Z,104.70
2019-01-25T15:05:27.328Z,106.50
2019-01-25T15:07:56.855Z,116.77
2019-01-25T15:10:26.396Z,106.93
2019-01-25T15:12:57.551Z,103.60
2019-01-25T15:15:27.100Z,94.63
2019-01-25T15:17:56.492Z,98.13
2019-01-25T15:20:28.401Z,101.33
2019-01-25T15:22:57.660Z,104.23
2019-01-25T15:25:27.158Z,103.20
2019-01-25T15:27:56.346Z,107.00
2019-01-25T15:30:30.702Z,101.57
2019-01-25T15:33:00.260Z,107.73
2019-01-25T15:35:29.712Z,101.30
2019-01-25T15:37:59.175Z,105.60
2019-01-25T15:40:28.444Z,103.57
2019-01-25T15:42:57.588Z,95.63
2019-01-25T15:45:27.118Z,104.90
2019-01-25T15:47:56.267Z,110.00
2019-01-25T15:50:34.374Z,112.43
2019-01-25T15:53:03.798Z,114.47
2019-01-25T15:55:33.384Z,114.60
2019-01-25T15:58:02.889Z,111.53
2019-01-25T16:00:32.676Z,112.17
2019-01-25T16:03:02.107Z,114.27
2019-01-25T16:05:31.610Z,118.37
2019-01-25T16:08:01.113Z,113.23
2019-01-25T16:10:30.316Z,105.07
2019-01-25T16:12:59.563Z,104.37
2019-01-25T16:15:30.957Z,99.60
2019-01-25T16:18:00.178Z,99.27
2019-01-25T16:20:29.870Z,109.23
2019-01-25T16:22:59.394Z,116.20
2019-01-25T16:25:33.504Z,107.93
2019-01-25T16:28:02.751Z,106.97
2019-01-25T16:30:37.306Z,104.90
2019-01-25T16:33:06.788Z,116.03
2019-01-25T16:35:36.306Z,115.50
2019-01-25T16:38:10.504Z,108.30
2019-01-25T16:40:39.825Z,106.23
2019-01-25T16:43:11.065Z,106.43
2019-01-25T16:45:44.683Z,108.13
2019-01-25T16:48:14.265Z,115.30
2019-01-25T16:50:43.940Z,103.87
2019-01-25T16:53:14.508Z,98.17
2019-01-25T16:55:44.015Z,97.10
2019-01-25T16:58:13.503Z,105.17
2019-01-25T17:00:45.003Z,100.93
2019-01-25T17:03:14.832Z,108.57
2019-01-25T17:05:44.013Z,111.67
2019-01-25T17:08:14.015Z,110.50
2019-01-25T17:10:57.547Z,110.03
2019-01-25T17:13:27.130Z,107.50
2019-01-25T17:15:56.322Z,103.17
2019-01-25T17:18:25.872Z,102.57
2019-01-25T17:20:55.032Z,95.50
2019-01-25T17:23:24.220Z,102.67
2019-01-25T17:25:53.412Z,99.00
2019-01-25T17:28:23.427Z,99.67
2019-01-25T17:30:52.985Z,103.40
2019-01-25T17:33:22.279Z,98.53
2019-01-25T17:35:51.452Z,107.67
2019-01-25T17:38:21.087Z,109.23
2019-01-25T17:40:50.645Z,106.23
2019-01-25T17:43:19.897Z,105.77
2019-01-25T17:45:49.091Z,106.30
2019-01-25T17:48:18.308Z,98.00
2019-01-25T17:50:47.629Z,109.37
2019-01-25T17:53:16.981Z,104.17
2019-01-25T17:55:46.731Z,118.33
2019-01-25T17:58:16.480Z,106.07
2019-01-25T18:00:52.311Z,104.37
2019-01-25T18:03:21.954Z,101.57
2019-01-25T18:05:51.150Z,107.30
2019-01-25T18:08:20.387Z,113.63
2019-01-25T18:10:50.146Z,109.77
2019-01-25T18:13:19.342Z,112.40
2019-01-25T18:15:48.917Z,99.80
2019-01-25T18:18:18.248Z,105.30
2019-01-25T18:20:48.040Z,100.23
2019-01-25T18:23:17.533Z,94.70
2019-01-25T18:25:49.636Z,100.40
2019-01-25T18:28:25.587Z,92.63
2019-01-25T18:31:02.015Z,97.10
2019-01-25T18:33:31.710Z,89.80
2019-01-25T18:36:00.875Z,94.77
2019-01-25T18:38:30.475Z,87.27
2019-01-25T18:40:59.691Z,98.23
2019-01-25T18:43:29.819Z,92.37
2019-01-25T18:45:59.085Z,97.07
2019-01-25T18:48:28.355Z,103.07
2019-01-25T18:50:57.788Z,113.37
2019-01-25T18:53:26.977Z,125.67
2019-01-25T18:55:56.185Z,125.17
2019-01-25T18:58:25.402Z,134.60
2019-01-25T19:00:55.208Z,119.20
2019-01-25T19:03:24.829Z,119.07
2019-01-25T19:05:54.055Z,126.00
2019-01-25T19:08:23.227Z,129.17
2019-01-25T19:10:52.654Z,126.03
2019-01-25T19:13:21.928Z,129.87
2019-01-25T19:15:51.290Z,125.87
2019-01-25T19:18:20.564Z,130.17
2019-01-25T19:20:50.210Z,130.37
2019-01-25T19:23:19.854Z,139.00
2019-01-25T19:25:49.109Z,131.33
2019-01-25T19:28:18.285Z,134.93
2019-01-25T19:30:48.092Z,136.87
2019-01-25T19:33:17.418Z,127.30
2019-01-25T19:35:46.719Z,135.77
2019-01-25T19:38:18.367Z,124.77
2019-01-25T19:40:49.277Z,120.90
2019-01-25T19:43:18.516Z,121.97
2019-01-25T19:45:48.044Z,125.07
2019-01-25T19:48:17.283Z,125.53
2019-01-25T19:50:47.234Z,134.20
2019-01-25T19:53:16.512Z,126.53
2019-01-25T19:55:45.688Z,116.77
2019-01-25T19:58:17.407Z,122.93
2019-01-25T20:00:47.583Z,129.80
2019-01-25T20:03:16.863Z,117.77
2019-01-25T20:05:46.093Z,119.97
2019-01-25T20:08:15.450Z,125.47
2019-01-25T20:10:44.910Z,115.93
2019-01-25T20:13:14.693Z,119.30
2019-01-25T20:15:43.912Z,112.37
2019-01-25T20:18:13.146Z,121.50
2019-01-25T20:20:42.429Z,113.43
2019-01-25T20:23:11.705Z,100.97
2019-01-25T20:25:40.972Z,101.60
2019-01-25T20:28:11.950Z,96.40
2019-01-25T20:30:41.378Z,91.43
2019-01-25T20:33:10.934Z,94.23
2019-01-25T20:35:41.857Z,91.00
2019-01-25T20:38:11.395Z,84.27
2019-01-25T20:40:40.889Z,84.90
2019-01-25T20:43:10.049Z,78.20
2019-01-25T20:45:39.968Z,72.67
2019-01-25T20:48:09.712Z,84.43
2019-01-25T20:50:39.302Z,76.80
2019-01-25T20:53:10.115Z,73.57
2019-01-25T20:55:39.379Z,76.77
2019-01-25T20:58:18.893Z,72.20
2019-01-25T21:00:48.233Z,71.30
2019-01-25T21:03:17.659Z,82.53
2019-01-25T21:05:46.929Z,80.97
2019-01-25T21:08:16.106Z,70.13
2019-01-25T21:10:45.280Z,73.90
2019-01-25T21:13:14.424Z,78.93
2019-01-25T21:15:44.032Z,73.27
2019-01-25T21:18:13.876Z,79.10
2019-01-25T21:20:45.466Z,72.77
2019-01-25T21:23:15.413Z,77.37
2019-01-25T21:25:45.222Z,70.10
2019-01-25T21:28:14.393Z,73.73
2019-01-25T21:30:43.691Z,76.63
2019-01-25T21:33:13.233Z,73.33
2019-01-25T21:35:42.493Z,67.93
2019-01-25T21:38:11.732Z,80.27
2019-01-25T21:40:40.913Z,66.67
2019-01-25T21:43:10.483Z,74.70
2019-01-25T21:45:43.311Z,75.10
2019-01-25T21:48:16.036Z,68.40
2019-01-25T21:50:46.095Z,75.27
2019-01-25T21:53:15.387Z,78.27
2019-01-25T21:55:44.709Z,71.10
2019-01-25T21:58:14.310Z,68.47
2019-01-25T22:00:43.498Z,78.53
2019-01-25T22:03:13.132Z,80.00
2019-01-25T22:05:42.475Z,82.40
2019-01-25T22:08:12.285Z,85.93
2019-01-25T22:10:46.760Z,74.43
2019-01-25T22:13:15.923Z,79.37
2019-01-25T22:15:50.803Z,76.63
2019-01-25T22:18:16.390Z,76.13
2019-01-25T22:20:45.669Z,80.37
2019-01-25T22:23:14.847Z,79.13
2019-01-25T22:25:44.117Z,77.07
2019-01-25T22:28:13.338Z,79.50
2019-01-25T22:30:42.637Z,67.20
2019-01-25T22:33:11.975Z,84.43
2019-01-25T22:35:41.202Z,70.53
2019-01-25T22:38:11.233Z,68.30
2019-01-25T22:40:40.816Z,75.20
2019-01-25T22:43:10.068Z,65.40
2019-01-25T22:45:39.251Z,74.23
2019-01-25T22:48:08.467Z,67.87
2019-01-25T22:50:38.107Z,73.23
2019-01-25T22:53:07.241Z,63.27
2019-01-25T22:55:36.392Z,72.63
2019-01-25T22:58:06.687Z,62.37
2019-01-25T23:00:55.109Z,60.67
2019-01-25T23:04:07.102Z,70.27
2019-01-25T23:06:39.667Z,70.60
2019-01-25T23:09:32.502Z,67.87
2019-01-25T23:12:02.027Z,62.83
2019-01-25T23:14:31.644Z,61.23
2019-01-25T23:17:01.443Z,59.60
2019-01-25T23:19:30.676Z,54.93
2019-01-25T23:22:00.206Z,62.03
2019-01-25T23:24:30.276Z,53.90
2019-01-25T23:26:59.779Z,59.70
2019-01-25T23:29:29.060Z,52.53
2019-01-25T23:31:58.569Z,61.73
2019-01-25T23:34:27.697Z,56.93
2019-01-25T23:36:56.861Z,55.13
2019-01-25T23:39:26.030Z,52.57
2019-01-25T23:41:55.211Z,54.13
2019-01-25T23:44:24.740Z,52.30
2019-01-25T23:46:54.260Z,51.93
2019-01-25T23:49:23.442Z,54.70
2019-01-25T23:51:52.663Z,47.97
2019-01-25T23:54:22.157Z,52.47
2019-01-25T23:56:51.736Z,48.77
2019-01-25T23:59:20.969Z,48.33
